createdAt,value
2019-05-14T00:02:31.679Z,52.89
2019-05-14T00:05:01.718Z,52.68
2019-05-14T00:07:31.990Z,52.82
2019-05-14T00:10:01.237Z,52.06
2019-05-14T00:12:31.458Z,51.91
2019-05-14T00:15:02.059Z,52.33
2019-05-14T00:17:31.932Z,52.44
2019-05-14T00:20:07.400Z,52.17
2019-05-14T00:22:32.013Z,59.21
2019-05-14T00:25:01.111Z,55.21
2019-05-14T00:27:31.193Z,53.64
2019-05-14T00:30:02.272Z,53.79
2019-05-14T00:32:31.766Z,54.12
2019-05-14T00:35:01.922Z,54.59
2019-05-14T00:37:32.182Z,54.87
2019-05-14T00:40:01.375Z,54.37
2019-05-14T00:42:31.904Z,55.01
2019-05-14T00:45:01.232Z,53.92
2019-05-14T00:47:31.006Z,54.15
2019-05-14T00:50:02.070Z,55.66
2019-05-14T00:52:31.472Z,55.09
2019-05-14T00:55:01.159Z,55.74
2019-05-14T00:57:31.634Z,57.90
2019-05-14T01:00:01.123Z,56.46
2019-05-14T01:02:31.890Z,55.71
2019-05-14T01:05:01.878Z,55.51
2019-05-14T01:07:31.610Z,55.35
2019-05-14T01:10:01.288Z,55.33
2019-05-14T01:12:31.784Z,54.89
2019-05-14T01:15:09.528Z,55.95
2019-05-14T01:17:31.473Z,56.61
2019-05-14T01:20:03.078Z,56.97
2019-05-14T01:22:31.638Z,58.00
2019-05-14T01:25:01.577Z,56.96
2019-05-14T01:27:31.734Z,56.49
2019-05-14T01:30:02.086Z,56.94
2019-05-14T01:32:31.507Z,61.02
2019-05-14T01:35:01.397Z,58.25
2019-05-14T01:37:31.123Z,57.49
2019-05-14T01:40:01.207Z,57.95
2019-05-14T01:42:32.063Z,58.03
2019-05-14T01:45:02.580Z,58.23
2019-05-14T01:47:31.845Z,57.42
2019-05-14T01:50:02.087Z,58.07
2019-05-14T01:52:31.815Z,58.60
2019-05-14T01:55:02.165Z,59.03
2019-05-14T01:57:31.265Z,59.41
2019-05-14T02:00:02.111Z,58.57
2019-05-14T02:02:31.379Z,58.01
2019-05-14T02:05:02.023Z,58.81
2019-05-14T02:07:31.495Z,61.82
2019-05-14T02:10:01.192Z,60.25
2019-05-14T02:12:31.566Z,58.78
2019-05-14T02:15:02.021Z,59.84
2019-05-14T02:17:31.811Z,58.55
2019-05-14T02:20:02.062Z,58.35
2019-05-14T02:22:32.055Z,58.06
2019-05-14T02:25:02.391Z,58.96
2019-05-14T02:27:34.877Z,60.55
2019-05-14T02:30:02.366Z,58.81
2019-05-14T02:32:31.442Z,59.89
2019-05-14T02:35:00.380Z,58.81
2019-05-14T02:37:30.118Z,58.97
2019-05-14T02:39:59.642Z,58.11
2019-05-14T02:42:29.152Z,64.91
2019-05-14T02:44:59.321Z,60.58
2019-05-14T02:47:29.812Z,59.08
2019-05-14T02:49:59.030Z,58.25
2019-05-14T02:52:29.196Z,58.88
2019-05-14T02:54:59.697Z,58.65
2019-05-14T02:57:30.426Z,58.76
2019-05-14T02:59:59.742Z,59.28
2019-05-14T03:02:29.661Z,59.57
2019-05-14T03:04:59.184Z,59.22
2019-05-14T03:07:29.778Z,58.77
2019-05-14T03:09:59.413Z,58.27
2019-05-14T03:12:30.261Z,57.75
2019-05-14T03:14:58.955Z,57.95
2019-05-14T03:17:29.970Z,59.09
2019-05-14T03:20:00.097Z,58.92
2019-05-14T03:22:43.366Z,57.14
2019-05-14T03:24:59.805Z,57.82
2019-05-14T03:27:30.360Z,57.50
2019-05-14T03:29:59.391Z,58.11
2019-05-14T03:32:33.145Z,57.91
2019-05-14T03:35:03.532Z,58.90
2019-05-14T03:37:31.040Z,59.03
2019-05-14T03:39:59.544Z,58.80
2019-05-14T03:42:29.220Z,58.69
2019-05-14T03:44:59.577Z,59.06
2019-05-14T03:47:29.816Z,58.47
2019-05-14T03:49:59.078Z,58.28
2019-05-14T03:52:29.252Z,62.01
2019-05-14T03:55:01.304Z,60.61
2019-05-14T03:57:29.169Z,59.43
2019-05-14T03:59:59.829Z,60.15
2019-05-14T04:02:29.669Z,60.13
2019-05-14T04:04:59.970Z,60.47
2019-05-14T04:07:30.820Z,60.44
2019-05-14T04:10:00.435Z,61.21
2019-05-14T04:12:31.766Z,61.06
2019-05-14T04:15:02.738Z,61.18
2019-05-14T04:17:40.926Z,61.17
2019-05-14T04:20:09.401Z,60.28
2019-05-14T04:22:39.451Z,59.81
2019-05-14T04:25:10.893Z,59.80
2019-05-14T04:27:40.528Z,60.13
2019-05-14T04:30:10.891Z,60.89
2019-05-14T04:32:41.461Z,59.50
2019-05-14T04:35:10.740Z,59.11
2019-05-14T04:37:40.285Z,58.79
2019-05-14T04:40:10.123Z,58.52
2019-05-14T04:42:40.094Z,58.35
2019-05-14T04:45:11.140Z,58.33
2019-05-14T04:47:42.144Z,59.22
2019-05-14T04:50:10.760Z,59.56
2019-05-14T04:52:40.444Z,58.99
2019-05-14T04:55:10.120Z,59.72
2019-05-14T04:57:39.553Z,60.44
2019-05-14T05:00:12.162Z,60.66
2019-05-14T05:02:39.942Z,61.56
2019-05-14T05:05:09.267Z,62.87
2019-05-14T05:07:40.293Z,61.24
2019-05-14T05:10:10.388Z,61.08
2019-05-14T05:12:39.141Z,61.72
2019-05-14T05:15:09.741Z,60.62
2019-05-14T05:17:47.202Z,61.92
2019-05-14T05:20:10.051Z,60.87
2019-05-14T05:22:39.626Z,61.23
2019-05-14T05:25:08.641Z,60.82
2019-05-14T05:27:38.226Z,60.32
2019-05-14T05:30:08.602Z,60.31
2019-05-14T05:32:38.840Z,59.83
2019-05-14T05:35:09.572Z,59.30
2019-05-14T05:37:38.602Z,59.51
2019-05-14T05:40:09.192Z,60.92
2019-05-14T05:42:38.602Z,60.46
2019-05-14T05:45:09.103Z,60.29
2019-05-14T05:47:39.125Z,59.79
2019-05-14T05:50:08.838Z,60.12
2019-05-14T05:52:38.757Z,58.99
2019-05-14T05:55:08.880Z,58.54
2019-05-14T05:57:39.347Z,58.06
2019-05-14T06:00:09.578Z,58.42
2019-05-14T06:02:39.953Z,58.29
2019-05-14T06:05:08.857Z,58.44
2019-05-14T06:07:39.427Z,58.58
2019-05-14T06:10:08.968Z,58.47
2019-05-14T06:12:38.795Z,58.95
2019-05-14T06:15:08.695Z,58.88
2019-05-14T06:17:39.125Z,57.73
2019-05-14T06:20:08.533Z,57.85
2019-05-14T06:22:38.546Z,57.82
2019-05-14T06:25:11.041Z,57.58
2019-05-14T06:27:38.355Z,56.63
2019-05-14T06:30:09.148Z,51.62
2019-05-14T06:32:38.707Z,48.19
2019-05-14T06:35:08.901Z,49.22
2019-05-14T06:37:38.476Z,50.94
2019-05-14T06:40:08.755Z,52.80
2019-05-14T06:42:39.414Z,52.98
2019-05-14T06:45:09.006Z,53.70
2019-05-14T06:47:38.250Z,54.11
2019-05-14T06:50:08.491Z,53.83
2019-05-14T06:52:38.622Z,53.43
2019-05-14T06:55:09.076Z,54.08
2019-05-14T06:57:39.336Z,53.03
2019-05-14T07:00:08.582Z,52.83
2019-05-14T07:02:43.364Z,51.81
2019-05-14T07:05:08.392Z,51.63
2019-05-14T07:07:40.154Z,50.35
2019-05-14T07:10:08.975Z,48.86
2019-05-14T07:12:38.765Z,49.47
2019-05-14T07:15:09.237Z,49.55
2019-05-14T07:17:38.533Z,49.06
2019-05-14T07:20:08.988Z,49.05
2019-05-14T07:22:39.064Z,49.44
2019-05-14T07:25:09.779Z,48.91
2019-05-14T07:27:39.360Z,48.73
2019-05-14T07:30:09.771Z,50.47
2019-05-14T07:32:39.511Z,49.89
2019-05-14T07:35:09.257Z,48.08
2019-05-14T07:37:39.550Z,47.01
2019-05-14T07:40:08.713Z,47.58
2019-05-14T07:42:38.371Z,47.17
2019-05-14T07:45:09.546Z,47.55
2019-05-14T07:47:38.974Z,46.88
2019-05-14T07:50:08.771Z,46.22
2019-05-14T07:52:45.545Z,46.08
2019-05-14T07:55:09.509Z,46.05
2019-05-14T07:57:39.270Z,46.62
2019-05-14T08:00:09.993Z,46.96
2019-05-14T08:02:38.604Z,46.66
2019-05-14T08:05:08.839Z,45.21
2019-05-14T08:07:38.824Z,46.00
2019-05-14T08:10:10.569Z,44.96
2019-05-14T08:12:39.368Z,44.79
2019-05-14T08:15:17.768Z,45.21
2019-05-14T08:17:39.483Z,44.17
2019-05-14T08:20:10.100Z,43.96
2019-05-14T08:22:38.803Z,44.40
2019-05-14T08:25:08.929Z,43.22
2019-05-14T08:27:39.022Z,43.04
2019-05-14T08:30:10.204Z,43.76
2019-05-14T08:32:39.178Z,43.87
2019-05-14T08:35:09.053Z,42.98
2019-05-14T08:37:38.683Z,42.82
2019-05-14T08:40:09.505Z,43.07
2019-05-14T08:42:38.522Z,42.19
2019-05-14T08:45:10.592Z,41.12
2019-05-14T08:47:39.078Z,40.26
2019-05-14T08:50:09.097Z,41.26
2019-05-14T08:52:39.304Z,41.46
2019-05-14T08:55:11.089Z,41.19
2019-05-14T08:57:38.920Z,40.64
2019-05-14T09:00:13.680Z,40.76
2019-05-14T09:02:39.293Z,40.18
2019-05-14T09:05:10.482Z,40.46
2019-05-14T09:07:38.681Z,40.11
2019-05-14T09:10:08.963Z,39.76
2019-05-14T09:12:38.766Z,40.37
2019-05-14T09:15:09.841Z,40.29
2019-05-14T09:17:39.006Z,39.33
2019-05-14T09:20:11.048Z,38.78
2019-05-14T09:22:39.733Z,37.14
2019-05-14T09:25:08.786Z,38.70
2019-05-14T09:27:38.730Z,39.61
2019-05-14T09:30:09.622Z,37.53
2019-05-14T09:32:38.933Z,37.84
2019-05-14T09:35:09.771Z,38.63
2019-05-14T09:37:39.617Z,37.13
2019-05-14T09:40:08.989Z,37.89
2019-05-14T09:42:39.230Z,37.64
2019-05-14T09:45:11.240Z,37.54
2019-05-14T09:47:39.218Z,36.93
2019-05-14T09:50:16.665Z,36.87
2019-05-14T09:52:39.290Z,36.66
2019-05-14T09:55:09.373Z,36.74
2019-05-14T09:57:38.863Z,36.39
2019-05-14T10:00:09.128Z,35.97
2019-05-14T10:02:39.261Z,34.68
2019-05-14T10:05:09.075Z,35.36
2019-05-14T10:07:39.157Z,35.89
2019-05-14T10:10:09.418Z,35.47
2019-05-14T10:12:51.221Z,35.51
2019-05-14T10:15:10.369Z,35.51
2019-05-14T10:17:39.453Z,35.79
2019-05-14T10:20:09.784Z,34.15
2019-05-14T10:22:39.810Z,36.82
2019-05-14T10:25:09.359Z,36.90
2019-05-14T10:27:37.986Z,37.49
2019-05-14T10:30:10.580Z,37.10
2019-05-14T10:32:41.392Z,36.72
2019-05-14T10:35:09.791Z,35.39
2019-05-14T10:37:40.038Z,35.22
2019-05-14T10:40:10.527Z,34.72
2019-05-14T10:42:40.295Z,34.59
2019-05-14T10:45:12.688Z,34.64
2019-05-14T10:47:39.992Z,34.75
2019-05-14T10:50:13.337Z,34.13
2019-05-14T10:52:39.634Z,33.78
2019-05-14T10:55:08.505Z,32.28
2019-05-14T10:57:37.831Z,32.55
2019-05-14T11:00:08.937Z,32.70
2019-05-14T11:02:38.721Z,32.42
2019-05-14T11:05:08.665Z,33.69
2019-05-14T11:07:41.574Z,32.36
2019-05-14T11:10:09.389Z,32.26
2019-05-14T11:12:39.549Z,32.59
2019-05-14T11:15:09.602Z,31.46
2019-05-14T11:17:40.738Z,31.67
2019-05-14T11:20:08.792Z,31.71
2019-05-14T11:22:38.091Z,31.59
2019-05-14T11:25:09.183Z,31.64
2019-05-14T11:27:38.914Z,31.04
2019-05-14T11:30:09.108Z,31.72
2019-05-14T11:32:38.697Z,32.69
2019-05-14T11:35:12.932Z,31.66
2019-05-14T11:37:41.482Z,31.70
2019-05-14T11:40:10.690Z,30.93
2019-05-14T11:42:39.297Z,30.83
2019-05-14T11:45:09.892Z,30.78
2019-05-14T11:47:38.409Z,30.52
2019-05-14T11:50:09.739Z,31.07
2019-05-14T11:52:38.952Z,31.17
2019-05-14T11:55:09.285Z,30.98
2019-05-14T11:57:38.532Z,31.34
2019-05-14T12:00:08.764Z,30.74
2019-05-14T12:02:38.500Z,31.24
2019-05-14T12:05:09.055Z,30.51
2019-05-14T12:07:39.023Z,30.44
2019-05-14T12:10:09.262Z,29.95
2019-05-14T12:12:38.614Z,29.76
2019-05-14T12:15:09.120Z,30.97
2019-05-14T12:17:39.331Z,31.12
2019-05-14T12:20:09.091Z,30.91
2019-05-14T12:22:39.357Z,30.82
2019-05-14T12:25:09.448Z,31.00
2019-05-14T12:27:39.034Z,30.80
2019-05-14T12:30:09.685Z,31.21
2019-05-14T12:32:39.788Z,30.67
2019-05-14T12:35:09.141Z,31.72
2019-05-14T12:37:38.800Z,31.59
2019-05-14T12:40:08.944Z,31.03
2019-05-14T12:42:39.193Z,30.77
2019-05-14T12:45:10.601Z,30.13
2019-05-14T12:47:39.478Z,30.94
2019-05-14T12:50:09.720Z,30.29
2019-05-14T12:52:39.224Z,30.32
2019-05-14T12:55:09.147Z,30.35
2019-05-14T12:57:39.389Z,29.87
2019-05-14T13:00:09.872Z,30.01
2019-05-14T13:02:39.367Z,30.23
2019-05-14T13:05:08.998Z,32.33
2019-05-14T13:07:41.410Z,31.38
2019-05-14T13:10:09.286Z,30.76
2019-05-14T13:12:39.164Z,30.35
2019-05-14T13:15:08.903Z,30.17
2019-05-14T13:17:38.814Z,27.91
2019-05-14T13:20:13.762Z,30.06
2019-05-14T13:22:46.146Z,30.62
2019-05-14T13:25:11.161Z,30.92
2019-05-14T13:27:39.860Z,30.84
2019-05-14T13:30:09.382Z,30.20
2019-05-14T13:32:39.325Z,29.55
2019-05-14T13:35:13.161Z,29.72
2019-05-14T13:37:40.155Z,30.25
2019-05-14T13:40:13.642Z,30.71
2019-05-14T13:42:44.244Z,29.07
2019-05-14T13:45:11.935Z,29.65
2019-05-14T13:47:40.482Z,28.75
2019-05-14T13:50:10.158Z,29.61
2019-05-14T13:52:44.435Z,28.81
2019-05-14T13:55:10.080Z,29.08
2019-05-14T13:57:39.756Z,28.79
2019-05-14T14:00:12.167Z,28.37
2019-05-14T14:02:40.797Z,29.52
2019-05-14T14:05:10.350Z,29.96
2019-05-14T14:07:39.698Z,28.66
2019-05-14T14:10:10.156Z,28.63
2019-05-14T14:12:40.391Z,29.58
2019-05-14T14:15:10.383Z,29.58
2019-05-14T14:17:39.701Z,30.22
2019-05-14T14:20:09.229Z,29.50
2019-05-14T14:22:40.096Z,30.21
2019-05-14T14:25:09.266Z,29.94
2019-05-14T14:27:40.869Z,30.07
2019-05-14T14:30:09.815Z,30.29
2019-05-14T14:32:40.725Z,29.58
2019-05-14T14:35:09.069Z,30.07
2019-05-14T14:37:39.743Z,29.63
2019-05-14T14:40:10.142Z,28.90
2019-05-14T14:42:40.034Z,29.64
2019-05-14T14:45:10.100Z,29.20
2019-05-14T14:47:39.707Z,28.75
2019-05-14T14:50:09.173Z,29.18
2019-05-14T14:52:37.794Z,29.64
2019-05-14T14:55:06.969Z,29.30
2019-05-14T14:57:35.624Z,30.69
2019-05-14T15:00:05.541Z,28.85
2019-05-14T15:02:34.072Z,29.33
2019-05-14T15:05:02.862Z,29.76
2019-05-14T15:07:31.488Z,29.32
2019-05-14T15:10:00.065Z,29.97
2019-05-14T15:12:29.246Z,29.16
2019-05-14T15:14:59.347Z,29.81
2019-05-14T15:17:29.510Z,30.24
2019-05-14T15:19:59.471Z,29.54
2019-05-14T15:22:30.870Z,29.34
2019-05-14T15:24:58.812Z,30.59
2019-05-14T15:27:28.233Z,29.71
2019-05-14T15:29:59.310Z,29.17
2019-05-14T15:32:30.024Z,29.65
2019-05-14T15:34:59.435Z,30.10
2019-05-14T15:37:28.608Z,29.31
2019-05-14T15:39:58.176Z,30.16
2019-05-14T15:42:28.304Z,30.29
2019-05-14T15:44:59.834Z,30.55
2019-05-14T15:47:29.703Z,30.55
2019-05-14T15:49:59.457Z,29.44
2019-05-14T15:52:29.297Z,29.67
2019-05-14T15:54:57.929Z,29.28
2019-05-14T15:57:28.814Z,30.10
2019-05-14T16:00:00.896Z,30.19
2019-05-14T16:02:29.566Z,30.29
2019-05-14T16:04:59.118Z,30.61
2019-05-14T16:07:29.286Z,30.28
2019-05-14T16:10:00.683Z,30.06
2019-05-14T16:12:32.134Z,30.86
2019-05-14T16:14:58.639Z,31.05
2019-05-14T16:17:30.218Z,30.51
2019-05-14T16:19:57.538Z,30.82
2019-05-14T16:22:26.232Z,31.02
2019-05-14T16:24:57.105Z,30.22
2019-05-14T16:27:25.014Z,30.64
2019-05-14T16:29:53.634Z,30.04
2019-05-14T16:32:22.219Z,30.42
2019-05-14T16:34:50.714Z,30.92
2019-05-14T16:37:19.375Z,31.25
2019-05-14T16:39:48.901Z,31.45
2019-05-14T16:42:20.535Z,31.53
2019-05-14T16:44:48.261Z,32.00
2019-05-14T16:47:18.858Z,31.57
2019-05-14T16:49:48.224Z,31.05
2019-05-14T16:52:18.083Z,31.01
2019-05-14T16:54:48.795Z,30.84
2019-05-14T16:57:18.609Z,31.90
2019-05-14T16:59:49.670Z,32.07
2019-05-14T17:02:19.144Z,33.23
2019-05-14T17:04:48.299Z,32.44
2019-05-14T17:07:18.226Z,32.65
2019-05-14T17:09:49.133Z,32.07
2019-05-14T17:12:20.156Z,31.92
2019-05-14T17:14:47.700Z,31.43
2019-05-14T17:17:16.338Z,31.54
2019-05-14T17:19:44.836Z,31.00
2019-05-14T17:22:25.305Z,31.12
2019-05-14T17:24:43.688Z,31.01
2019-05-14T17:27:12.592Z,30.80
2019-05-14T17:29:41.242Z,30.94
2019-05-14T17:32:09.814Z,31.74
2019-05-14T17:34:38.826Z,31.59
2019-05-14T17:37:08.896Z,31.31
2019-05-14T17:39:38.710Z,30.83
2019-05-14T17:42:11.389Z,31.62
2019-05-14T17:44:38.857Z,32.77
2019-05-14T17:47:07.633Z,32.51
2019-05-14T17:49:36.250Z,32.11
2019-05-14T17:52:04.815Z,32.13
2019-05-14T17:54:33.462Z,32.04
2019-05-14T17:57:02.035Z,32.62
2019-05-14T17:59:33.467Z,33.29
2019-05-14T18:02:01.231Z,33.58
2019-05-14T18:04:29.849Z,33.57
2019-05-14T18:06:59.190Z,33.79
2019-05-14T18:09:29.352Z,33.32
2019-05-14T18:11:58.591Z,34.44
2019-05-14T18:14:28.420Z,33.11
2019-05-14T18:16:58.494Z,33.04
2019-05-14T18:19:28.919Z,33.99
2019-05-14T18:21:59.295Z,33.13
2019-05-14T18:24:28.684Z,33.74
2019-05-14T18:26:57.468Z,33.43
2019-05-14T18:29:26.115Z,34.10
2019-05-14T18:31:55.359Z,34.51
2019-05-14T18:34:24.111Z,34.28
2019-05-14T18:36:52.591Z,34.87
2019-05-14T18:39:21.436Z,35.92
2019-05-14T18:41:50.200Z,35.27
2019-05-14T18:44:19.068Z,34.66
2019-05-14T18:46:48.742Z,35.60
2019-05-14T18:49:19.526Z,35.00
2019-05-14T18:51:50.111Z,35.21
2019-05-14T18:54:18.127Z,36.19
2019-05-14T18:56:48.936Z,36.27
2019-05-14T18:59:21.313Z,36.36
2019-05-14T19:01:49.260Z,37.09
2019-05-14T19:04:18.555Z,37.06
2019-05-14T19:06:48.238Z,37.83
2019-05-14T19:09:18.615Z,38.41
2019-05-14T19:11:48.218Z,38.54
2019-05-14T19:14:18.743Z,38.70
2019-05-14T19:16:49.024Z,39.57
2019-05-14T19:19:17.722Z,39.35
2019-05-14T19:21:48.684Z,40.35
2019-05-14T19:24:18.888Z,40.58
2019-05-14T19:26:49.270Z,40.90
2019-05-14T19:29:18.566Z,41.20
2019-05-14T19:31:48.099Z,41.75
2019-05-14T19:34:19.092Z,41.39
2019-05-14T19:36:47.154Z,42.33
2019-05-14T19:39:15.737Z,42.17
2019-05-14T19:41:44.325Z,41.86
2019-05-14T19:44:13.018Z,42.86
2019-05-14T19:46:41.568Z,43.07
2019-05-14T19:49:09.999Z,43.21
2019-05-14T19:51:38.830Z,43.55
2019-05-14T19:54:08.139Z,43.14
2019-05-14T19:56:51.845Z,43.40
2019-05-14T19:59:09.084Z,44.13
2019-05-14T20:01:38.451Z,45.67
2019-05-14T20:04:09.562Z,45.62
2019-05-14T20:06:38.827Z,46.20
2019-05-14T20:09:09.445Z,47.00
2019-05-14T20:11:39.575Z,48.86
2019-05-14T20:14:08.614Z,48.40
2019-05-14T20:16:39.199Z,46.93
2019-05-14T20:19:08.832Z,47.18
2019-05-14T20:21:39.013Z,48.02
2019-05-14T20:24:07.773Z,49.24
2019-05-14T20:26:38.746Z,48.71
2019-05-14T20:29:08.725Z,49.59
2019-05-14T20:31:38.965Z,51.38
2019-05-14T20:34:08.458Z,50.72
2019-05-14T20:36:38.941Z,51.86
2019-05-14T20:39:08.630Z,51.66
2019-05-14T20:41:38.518Z,52.19
2019-05-14T20:44:07.302Z,52.25
2019-05-14T20:46:38.074Z,52.58
2019-05-14T20:49:08.619Z,53.56
2019-05-14T20:51:38.684Z,54.12
2019-05-14T20:54:08.776Z,53.93
2019-05-14T20:56:36.968Z,52.41
2019-05-14T20:59:05.492Z,51.89
2019-05-14T21:01:34.107Z,51.32
2019-05-14T21:04:02.578Z,52.61
2019-05-14T21:06:31.165Z,54.45
2019-05-14T21:08:59.787Z,55.28
2019-05-14T21:11:28.864Z,52.58
2019-05-14T21:13:58.104Z,54.14
2019-05-14T21:16:28.329Z,55.19
2019-05-14T21:18:59.047Z,56.30
2019-05-14T21:21:28.301Z,55.56
2019-05-14T21:23:58.725Z,54.58
2019-05-14T21:26:29.228Z,55.19
2019-05-14T21:28:58.231Z,56.47
2019-05-14T21:31:28.399Z,55.93
2019-05-14T21:33:58.601Z,55.18
2019-05-14T21:36:28.383Z,56.58
2019-05-14T21:38:58.661Z,57.30
2019-05-14T21:41:29.066Z,56.51
2019-05-14T21:43:58.370Z,56.29
2019-05-14T21:46:28.835Z,57.35
2019-05-14T21:48:58.611Z,58.49
2019-05-14T21:51:28.357Z,59.50
2019-05-14T21:53:58.799Z,59.17
2019-05-14T21:56:29.143Z,57.56
2019-05-14T21:59:01.032Z,59.35
2019-05-14T22:01:31.059Z,58.22
2019-05-14T22:03:59.357Z,59.81
2019-05-14T22:06:29.081Z,59.31
2019-05-14T22:08:59.118Z,59.30
2019-05-14T22:11:28.301Z,60.53
2019-05-14T22:13:58.328Z,60.32
2019-05-14T22:16:28.071Z,60.12
2019-05-14T22:18:59.136Z,59.37
2019-05-14T22:21:28.844Z,60.65
2019-05-14T22:23:58.892Z,60.89
2019-05-14T22:26:28.268Z,59.46
2019-05-14T22:28:58.665Z,59.99
2019-05-14T22:31:29.013Z,59.84
2019-05-14T22:33:58.335Z,61.36
2019-05-14T22:36:29.315Z,61.38
2019-05-14T22:38:57.947Z,62.12
2019-05-14T22:41:28.917Z,60.52
2019-05-14T22:43:59.876Z,60.01
2019-05-14T22:46:27.106Z,60.03
2019-05-14T22:48:55.697Z,61.08
2019-05-14T22:51:24.401Z,60.21
2019-05-14T22:53:53.062Z,59.25
2019-05-14T22:56:21.641Z,58.75
2019-05-14T22:58:50.268Z,58.07
2019-05-14T23:01:18.855Z,57.88
2019-05-14T23:03:48.927Z,58.14
2019-05-14T23:06:18.719Z,58.04
2019-05-14T23:08:48.650Z,56.83
2019-05-14T23:11:19.695Z,58.25
2019-05-14T23:13:48.861Z,58.58
2019-05-14T23:16:32.712Z,58.63
2019-05-14T23:18:48.803Z,59.12
2019-05-14T23:21:17.496Z,59.38
2019-05-14T23:23:46.877Z,59.43
2019-05-14T23:26:15.406Z,60.57
2019-05-14T23:28:45.834Z,62.20
2019-05-14T23:31:14.394Z,59.33
2019-05-14T23:33:43.045Z,59.45
2019-05-14T23:36:11.806Z,58.95
2019-05-14T23:38:40.425Z,58.00
2019-05-14T23:41:09.049Z,57.89
2019-05-14T23:43:39.186Z,58.87
2019-05-14T23:46:09.263Z,59.50
2019-05-14T23:48:39.160Z,60.38
2019-05-14T23:51:08.288Z,60.47
2019-05-14T23:53:39.098Z,60.22
2019-05-14T23:56:08.637Z,59.74
2019-05-14T23:58:37.535Z,59.59
